createdAt,value
2023-03-28T00:01:15.249Z,1.75
2023-03-28T00:03:44.430Z,1.77
2023-03-28T00:06:14.656Z,1.81
2023-03-28T00:08:44.647Z,1.85
2023-03-28T00:11:14.683Z,1.84
2023-03-28T00:13:43.677Z,1.85
2023-03-28T00:16:13.324Z,1.83
2023-03-28T00:18:42.583Z,1.81
2023-03-28T00:21:22.588Z,1.79
2023-03-28T00:23:52.289Z,1.73
2023-03-28T00:26:22.479Z,1.72
2023-03-28T00:28:51.515Z,1.74
2023-03-28T00:31:21.366Z,1.75
2023-03-28T00:33:50.646Z,1.75
2023-03-28T00:36:20.443Z,1.75
2023-03-28T00:38:49.823Z,1.75
2023-03-28T00:41:18.983Z,1.79
2023-03-28T00:43:49.149Z,1.82
2023-03-28T00:46:20.313Z,1.82
2023-03-28T00:48:51.350Z,1.85
2023-03-28T00:51:23.664Z,1.86
2023-03-28T00:53:53.516Z,1.88
2023-03-28T00:56:23.864Z,1.93
2023-03-28T00:58:52.966Z,1.96
2023-03-28T01:01:22.167Z,1.94
2023-03-28T01:03:54.453Z,1.81
2023-03-28T01:06:24.817Z,1.66
2023-03-28T01:08:54.494Z,1.60
2023-03-28T01:11:24.663Z,1.61
2023-03-28T01:13:54.166Z,1.66
2023-03-28T01:16:23.389Z,1.69
2023-03-28T01:18:52.909Z,1.70
2023-03-28T01:21:37.518Z,1.66
2023-03-28T01:24:23.062Z,1.55
2023-03-28T01:26:54.549Z,1.44
2023-03-28T01:29:55.577Z,1.37
2023-03-28T01:32:38.594Z,1.30
2023-03-28T01:35:19.328Z,1.27
2023-03-28T01:37:52.714Z,1.23
2023-03-28T01:40:32.172Z,1.18
2023-03-28T01:43:08.130Z,1.16
2023-03-28T01:45:41.820Z,1.17
2023-03-28T01:48:16.748Z,1.19
2023-03-28T01:50:48.102Z,1.22
2023-03-28T01:53:21.655Z,1.23
2023-03-28T01:55:54.865Z,1.24
2023-03-28T01:58:27.716Z,1.24
2023-03-28T02:01:02.132Z,1.22
2023-03-28T02:03:32.261Z,1.18
2023-03-28T02:06:04.401Z,1.12
2023-03-28T02:08:35.466Z,1.09
2023-03-28T02:11:04.734Z,1.07
2023-03-28T02:13:36.588Z,1.06
2023-03-28T02:16:08.004Z,1.05
2023-03-28T02:18:38.937Z,1.06
2023-03-28T02:21:10.660Z,1.07
2023-03-28T02:23:41.096Z,1.11
2023-03-28T02:26:10.328Z,1.14
2023-03-28T02:28:40.034Z,1.13
2023-03-28T02:31:09.392Z,1.15
2023-03-28T02:33:40.185Z,1.15
2023-03-28T02:36:15.692Z,1.15
2023-03-28T02:38:48.081Z,1.12
2023-03-28T02:41:24.219Z,1.08
2023-03-28T02:44:03.079Z,1.08
2023-03-28T02:46:36.427Z,1.02
2023-03-28T02:49:22.104Z,0.96
2023-03-28T02:51:58.112Z,0.90
2023-03-28T02:54:33.728Z,0.88
2023-03-28T02:57:06.260Z,0.83
2023-03-28T02:59:38.763Z,0.77
2023-03-28T03:02:08.143Z,0.70
2023-03-28T03:04:37.272Z,0.63
2023-03-28T03:07:06.693Z,0.60
2023-03-28T03:09:35.747Z,0.57
2023-03-28T03:12:05.066Z,0.55
2023-03-28T03:14:34.142Z,0.51
2023-03-28T03:17:03.216Z,0.50
2023-03-28T03:19:32.643Z,0.51
2023-03-28T03:22:01.722Z,0.51
2023-03-28T03:24:30.894Z,0.49
2023-03-28T03:26:59.975Z,0.54
2023-03-28T03:29:38.792Z,0.55
2023-03-28T03:32:08.803Z,0.58
2023-03-28T03:34:37.868Z,0.60
2023-03-28T03:37:07.217Z,0.62
2023-03-28T03:39:36.694Z,0.64
2023-03-28T03:42:05.818Z,0.62
2023-03-28T03:44:34.893Z,0.60
2023-03-28T03:47:04.451Z,0.59
2023-03-28T03:49:33.516Z,0.62
2023-03-28T03:52:02.609Z,0.65
2023-03-28T03:54:31.695Z,0.64
2023-03-28T03:57:00.898Z,0.66
2023-03-28T03:59:30.359Z,0.66
2023-03-28T04:01:59.663Z,0.63
2023-03-28T04:04:29.104Z,0.61
2023-03-28T04:06:58.206Z,0.62
2023-03-28T04:09:27.681Z,0.59
2023-03-28T04:11:56.746Z,0.55
2023-03-28T04:14:25.836Z,0.51
2023-03-28T04:16:54.948Z,0.47
2023-03-28T04:19:24.032Z,0.45
2023-03-28T04:21:53.142Z,0.43
2023-03-28T04:24:22.873Z,0.41
2023-03-28T04:26:52.143Z,0.43
2023-03-28T04:29:21.237Z,0.41
2023-03-28T04:31:50.507Z,0.38
2023-03-28T04:34:19.709Z,0.38
2023-03-28T04:36:48.740Z,0.40
2023-03-28T04:39:17.885Z,0.39
2023-03-28T04:41:46.969Z,0.35
2023-03-28T04:44:16.147Z,0.34
2023-03-28T04:46:45.210Z,0.32
2023-03-28T04:49:14.310Z,0.33
2023-03-28T04:51:43.382Z,0.29
2023-03-28T04:54:12.503Z,0.32
2023-03-28T04:56:41.605Z,0.36
2023-03-28T05:00:10.578Z,0.42
2023-03-28T05:02:39.928Z,0.47
2023-03-28T05:05:11.006Z,0.51
2023-03-28T05:07:40.088Z,0.53
2023-03-28T05:10:09.874Z,0.60
2023-03-28T05:12:40.110Z,0.68
2023-03-28T05:15:09.707Z,0.74
2023-03-28T05:17:38.844Z,0.78
2023-03-28T05:20:09.974Z,0.81
2023-03-28T05:22:39.308Z,0.89
2023-03-28T05:25:09.114Z,0.97
2023-03-28T05:27:38.250Z,1.02
2023-03-28T05:30:08.798Z,1.07
2023-03-28T05:32:38.074Z,1.08
2023-03-28T05:35:08.736Z,1.06
2023-03-28T05:37:39.788Z,1.05
2023-03-28T05:40:12.384Z,1.05
2023-03-28T05:42:41.488Z,1.14
2023-03-28T05:45:11.346Z,1.27
2023-03-28T05:47:40.503Z,1.27
2023-03-28T05:50:10.612Z,1.22
2023-03-28T05:52:40.110Z,1.30
2023-03-28T05:55:09.730Z,1.35
2023-03-28T05:57:38.816Z,1.40
2023-03-28T06:00:10.495Z,1.56
2023-03-28T06:02:41.386Z,1.86
2023-03-28T06:05:11.429Z,2.13
2023-03-28T06:07:43.144Z,2.38
2023-03-28T06:10:13.746Z,2.32
2023-03-28T06:12:42.839Z,2.23
2023-03-28T06:15:12.397Z,2.27
2023-03-28T06:17:41.519Z,2.38
2023-03-28T06:20:12.616Z,2.30
2023-03-28T06:22:41.734Z,2.15
2023-03-28T06:25:11.019Z,1.92
2023-03-28T06:27:40.092Z,1.64
2023-03-28T06:30:10.048Z,1.50
2023-03-28T06:32:39.154Z,1.41
2023-03-28T06:35:09.020Z,1.37
2023-03-28T06:37:38.175Z,1.42
2023-03-28T06:40:09.880Z,1.51
2023-03-28T06:42:39.005Z,1.61
2023-03-28T06:45:09.250Z,1.82
2023-03-28T06:47:38.346Z,2.14
2023-03-28T06:50:09.681Z,2.36
2023-03-28T06:52:38.759Z,2.52
2023-03-28T06:55:10.026Z,2.72
2023-03-28T06:57:39.297Z,2.86
2023-03-28T07:00:09.303Z,3.09
2023-03-28T07:02:38.519Z,3.08
2023-03-28T07:05:08.003Z,2.92
2023-03-28T07:07:37.557Z,2.98
2023-03-28T07:10:07.971Z,3.19
2023-03-28T07:12:37.344Z,3.30
2023-03-28T07:15:08.676Z,3.34
2023-03-28T07:17:37.878Z,3.17
2023-03-28T07:20:07.709Z,2.97
2023-03-28T07:22:36.789Z,2.83
2023-03-28T07:25:06.653Z,2.61
2023-03-28T07:27:35.748Z,2.49
2023-03-28T07:30:11.365Z,2.32
2023-03-28T07:32:51.435Z,2.36
2023-03-28T07:35:26.022Z,2.62
2023-03-28T07:37:55.112Z,2.68
2023-03-28T07:40:24.325Z,2.74
2023-03-28T07:42:54.106Z,2.65
2023-03-28T07:45:23.481Z,2.63
2023-03-28T07:47:52.636Z,2.61
2023-03-28T07:50:24.295Z,2.69
2023-03-28T07:52:53.951Z,2.79
2023-03-28T07:55:23.040Z,2.66
2023-03-28T07:57:52.287Z,2.51
2023-03-28T08:00:23.349Z,2.50
2023-03-28T08:02:52.609Z,2.69
2023-03-28T08:05:21.854Z,2.80
2023-03-28T08:07:51.014Z,2.94
2023-03-28T08:10:20.159Z,2.93
2023-03-28T08:12:49.373Z,2.84
2023-03-28T08:15:18.616Z,2.85
2023-03-28T08:17:47.681Z,2.93
2023-03-28T08:20:17.105Z,3.08
2023-03-28T08:22:46.155Z,3.31
2023-03-28T08:25:15.313Z,3.27
2023-03-28T08:27:44.527Z,3.30
2023-03-28T08:30:13.892Z,3.35
2023-03-28T08:32:43.081Z,3.48
2023-03-28T08:35:12.131Z,3.72
2023-03-28T08:37:41.303Z,3.86
2023-03-28T08:40:13.596Z,3.79
2023-03-28T08:42:57.015Z,3.57
2023-03-28T08:45:30.820Z,3.59
2023-03-28T08:48:04.430Z,3.71
2023-03-28T08:50:35.021Z,3.55
2023-03-28T08:53:04.750Z,3.52
2023-03-28T08:55:36.881Z,3.65
2023-03-28T08:58:09.501Z,3.74
2023-03-28T09:00:40.322Z,3.96
2023-03-28T09:03:12.628Z,4.12
2023-03-28T09:05:44.747Z,4.08
2023-03-28T09:08:27.403Z,4.07
2023-03-28T09:11:00.884Z,4.39
2023-03-28T09:13:33.772Z,4.55
2023-03-28T09:16:08.966Z,4.26
2023-03-28T09:18:48.020Z,4.10
2023-03-28T09:21:22.767Z,4.09
2023-03-28T09:24:04.054Z,3.99
2023-03-28T09:26:34.861Z,3.78
2023-03-28T09:29:06.069Z,3.59
2023-03-28T09:31:39.847Z,3.34
2023-03-28T09:34:12.740Z,2.82
2023-03-28T09:36:48.849Z,2.47
2023-03-28T09:39:25.868Z,2.33
2023-03-28T09:42:00.604Z,2.46
2023-03-28T09:44:32.135Z,2.69
2023-03-28T09:47:08.475Z,3.03
2023-03-28T09:49:37.617Z,3.04
2023-03-28T09:52:13.980Z,3.08
2023-03-28T09:54:43.396Z,3.17
2023-03-28T09:57:12.534Z,3.30
2023-03-28T09:59:41.698Z,3.44
2023-03-28T10:02:24.556Z,3.69
2023-03-28T10:04:53.808Z,4.00
2023-03-28T10:07:31.317Z,4.12
2023-03-28T10:10:07.456Z,4.14
2023-03-28T10:12:37.816Z,4.01
2023-03-28T10:15:28.803Z,3.75
2023-03-28T10:17:59.170Z,3.42
2023-03-28T10:20:32.727Z,3.14
2023-03-28T10:23:04.469Z,2.74
2023-03-28T10:25:36.868Z,2.39
2023-03-28T10:28:06.930Z,2.31
2023-03-28T10:30:36.802Z,2.36
2023-03-28T10:33:19.668Z,2.46
2023-03-28T10:35:54.512Z,2.57
2023-03-28T10:38:24.472Z,2.66
2023-03-28T10:40:59.154Z,2.75
2023-03-28T10:43:32.905Z,2.88
2023-03-28T10:46:04.138Z,3.05
2023-03-28T10:48:34.863Z,3.21
2023-03-28T10:51:05.655Z,3.63
2023-03-28T10:53:42.768Z,3.82
2023-03-28T10:56:19.382Z,3.58
2023-03-28T10:58:53.807Z,3.29
2023-03-28T11:01:24.084Z,3.06
2023-03-28T11:04:03.132Z,2.99
2023-03-28T11:06:35.206Z,3.18
2023-03-28T11:09:13.874Z,3.29
2023-03-28T11:11:53.576Z,3.36
2023-03-28T11:14:29.917Z,3.33
2023-03-28T11:17:02.949Z,3.24
2023-03-28T11:19:42.346Z,3.39
2023-03-28T11:22:17.656Z,3.47
2023-03-28T11:25:07.313Z,3.74
2023-03-28T11:27:42.157Z,4.03
2023-03-28T11:30:13.885Z,4.33
2023-03-28T11:32:45.505Z,4.55
2023-03-28T11:35:17.691Z,4.72
2023-03-28T11:38:00.418Z,4.70
2023-03-28T11:40:31.831Z,4.23
2023-03-28T11:43:03.938Z,3.83
2023-03-28T11:45:50.234Z,3.66
2023-03-28T11:48:24.602Z,3.57
2023-03-28T11:51:03.451Z,3.56
2023-03-28T11:53:36.554Z,3.72
2023-03-28T11:56:09.282Z,3.70
2023-03-28T11:58:40.606Z,3.71
2023-03-28T12:01:12.304Z,3.96
2023-03-28T12:03:53.693Z,4.16
2023-03-28T12:06:26.774Z,4.18
2023-03-28T12:08:57.084Z,4.14
2023-03-28T12:11:30.420Z,4.09
2023-03-28T12:14:12.299Z,3.95
2023-03-28T12:16:44.234Z,4.12
2023-03-28T12:19:15.555Z,4.39
2023-03-28T12:21:47.590Z,4.64
2023-03-28T12:24:21.333Z,4.70
2023-03-28T12:26:58.385Z,4.58
2023-03-28T12:29:30.739Z,4.53
2023-03-28T12:32:03.152Z,4.44
2023-03-28T12:34:36.308Z,4.47
2023-03-28T12:37:18.903Z,4.62
2023-03-28T12:39:51.441Z,4.70
2023-03-28T12:42:21.633Z,4.70
2023-03-28T12:44:53.645Z,4.79
2023-03-28T12:47:24.346Z,4.88
2023-03-28T12:49:55.631Z,4.86
2023-03-28T12:52:27.225Z,4.85
2023-03-28T12:55:00.827Z,4.74
2023-03-28T12:57:43.824Z,4.62
2023-03-28T13:00:22.030Z,4.63
2023-03-28T13:02:53.792Z,4.62
2023-03-28T13:05:27.812Z,4.69
2023-03-28T13:08:00.284Z,4.76
2023-03-28T13:10:33.462Z,4.80
2023-03-28T13:13:06.555Z,4.86
2023-03-28T13:15:48.450Z,4.76
2023-03-28T13:18:27.526Z,4.69
2023-03-28T13:20:57.317Z,4.49
2023-03-28T13:23:29.864Z,4.55
2023-03-28T13:25:59.583Z,4.59
2023-03-28T13:28:45.399Z,4.56
2023-03-28T13:31:21.200Z,4.50
2023-03-28T13:33:52.583Z,4.52
2023-03-28T13:36:26.538Z,4.55
2023-03-28T13:39:15.179Z,4.56
2023-03-28T13:41:57.701Z,4.52
2023-03-28T13:44:31.262Z,4.56
2023-03-28T13:47:00.465Z,4.59
2023-03-28T13:49:35.835Z,4.59
2023-03-28T13:52:07.182Z,4.68
2023-03-28T13:54:36.341Z,4.81
2023-03-28T13:57:06.793Z,4.90
2023-03-28T13:59:37.495Z,4.91
2023-03-28T14:02:15.766Z,4.84
2023-03-28T14:04:50.820Z,4.80
2023-03-28T14:07:24.480Z,4.74
2023-03-28T14:09:54.155Z,4.81
2023-03-28T14:12:24.373Z,4.76
2023-03-28T14:14:54.019Z,4.81
2023-03-28T14:17:24.724Z,4.91
2023-03-28T14:19:55.312Z,5.00
2023-03-28T14:22:26.476Z,5.05
2023-03-28T14:24:58.004Z,5.05
2023-03-28T14:27:30.385Z,5.12
2023-03-28T14:29:59.739Z,5.20
2023-03-28T14:32:29.572Z,5.32
2023-03-28T14:35:08.535Z,5.38
2023-03-28T14:37:37.602Z,5.38
2023-03-28T14:40:18.087Z,5.43
2023-03-28T14:42:48.242Z,5.40
2023-03-28T14:45:17.485Z,5.38
2023-03-28T14:47:46.674Z,5.35
2023-03-28T14:50:16.747Z,5.32
2023-03-28T14:52:46.158Z,5.26
2023-03-28T14:55:16.718Z,5.20
2023-03-28T14:57:47.019Z,5.17
2023-03-28T15:00:21.858Z,5.18
2023-03-28T15:02:51.897Z,5.19
2023-03-28T15:05:22.503Z,5.16
2023-03-28T15:07:56.338Z,5.26
2023-03-28T15:10:25.897Z,5.29
2023-03-28T15:13:02.973Z,5.35
2023-03-28T15:15:32.801Z,5.43
2023-03-28T15:18:05.485Z,5.44
2023-03-28T15:20:35.433Z,5.42
2023-03-28T15:23:05.774Z,5.34
2023-03-28T15:25:35.717Z,5.35
2023-03-28T15:28:06.753Z,5.35
2023-03-28T15:30:40.457Z,5.39
2023-03-28T15:33:14.004Z,5.38
2023-03-28T15:35:43.165Z,5.30
2023-03-28T15:38:18.824Z,5.18
2023-03-28T15:40:48.512Z,5.14
2023-03-28T15:43:37.082Z,5.12
2023-03-28T15:46:10.863Z,5.15
2023-03-28T15:48:40.924Z,5.16
2023-03-28T15:51:18.327Z,5.20
2023-03-28T15:53:50.974Z,5.14
2023-03-28T15:56:23.394Z,5.12
2023-03-28T15:58:53.267Z,5.10
2023-03-28T16:01:25.948Z,5.08
2023-03-28T16:04:08.614Z,5.06
2023-03-28T16:06:41.542Z,5.01
2023-03-28T16:09:17.102Z,4.98
2023-03-28T16:11:50.660Z,4.97
2023-03-28T16:14:22.185Z,4.89
2023-03-28T16:17:36.556Z,4.82
2023-03-28T16:20:15.584Z,4.74
2023-03-28T16:23:05.848Z,4.65
2023-03-28T16:25:35.303Z,4.53
2023-03-28T16:28:04.481Z,4.47
2023-03-28T16:30:35.484Z,4.38
2023-03-28T16:33:04.599Z,4.30
2023-03-28T16:35:34.280Z,4.22
2023-03-28T16:38:03.623Z,4.18
2023-03-28T16:40:32.678Z,4.14
2023-03-28T16:43:01.768Z,4.06
2023-03-28T16:45:30.916Z,3.96
2023-03-28T16:48:00.262Z,3.88
2023-03-28T16:50:29.451Z,3.84
2023-03-28T16:52:58.807Z,3.78
2023-03-28T16:55:27.885Z,3.71
2023-03-28T16:57:56.972Z,3.65
2023-03-28T17:00:26.423Z,3.59
2023-03-28T17:02:56.084Z,3.54
2023-03-28T17:05:25.573Z,3.51
2023-03-28T17:07:55.066Z,3.47
2023-03-28T17:10:24.263Z,3.43
2023-03-28T17:12:53.576Z,3.38
2023-03-28T17:15:22.759Z,3.33
2023-03-28T17:17:52.256Z,3.28
2023-03-28T17:20:21.337Z,3.22
2023-03-28T17:22:50.733Z,3.17
2023-03-28T17:25:53.889Z,3.12
2023-03-28T17:28:24.074Z,3.07
2023-03-28T17:30:53.514Z,3.02
2023-03-28T17:33:23.082Z,2.98
2023-03-28T17:35:52.346Z,2.94
2023-03-28T17:38:21.717Z,2.89
2023-03-28T17:40:51.070Z,2.85
2023-03-28T17:43:20.429Z,2.81
2023-03-28T17:45:53.951Z,2.79
2023-03-28T17:48:23.294Z,2.77
2023-03-28T17:50:53.078Z,2.73
2023-03-28T17:53:22.489Z,2.70
2023-03-28T17:55:52.013Z,2.68
2023-03-28T17:58:22.198Z,2.64
2023-03-28T18:00:51.590Z,2.62
2023-03-28T18:03:23.820Z,2.60
2023-03-28T18:05:53.524Z,2.58
2023-03-28T18:08:22.627Z,2.57
2023-03-28T18:10:51.823Z,2.56
2023-03-28T18:13:20.889Z,2.54
2023-03-28T18:15:49.931Z,2.50
2023-03-28T18:18:19.798Z,2.46
2023-03-28T18:20:49.199Z,2.45
2023-03-28T18:23:18.847Z,2.41
2023-03-28T18:25:50.076Z,2.37
2023-03-28T18:28:20.793Z,2.34
2023-03-28T18:30:50.603Z,2.31
2023-03-28T18:33:20.401Z,2.26
2023-03-28T18:35:49.565Z,2.24
2023-03-28T18:38:19.506Z,2.20
2023-03-28T18:40:51.507Z,2.15
2023-03-28T18:43:20.612Z,2.10
2023-03-28T18:45:53.400Z,2.05
2023-03-28T18:48:23.247Z,1.99
2023-03-28T18:50:52.392Z,1.95
2023-03-28T18:53:21.845Z,1.91
2023-03-28T18:55:51.418Z,1.87
2023-03-28T18:58:21.387Z,1.83
2023-03-28T19:00:54.914Z,1.79
2023-03-28T19:03:24.233Z,1.74
2023-03-28T19:05:55.627Z,1.69
2023-03-28T19:08:25.207Z,1.65
2023-03-28T19:10:54.901Z,1.59
2023-03-28T19:13:27.117Z,1.54
2023-03-28T19:16:03.618Z,1.52
2023-03-28T19:18:34.121Z,1.51
2023-03-28T19:21:03.215Z,1.50
2023-03-28T19:23:32.321Z,1.47
2023-03-28T19:26:03.911Z,1.43
2023-03-28T19:28:33.683Z,1.38
2023-03-28T19:31:04.097Z,1.36
2023-03-28T19:33:33.761Z,1.34
2023-03-28T19:36:03.027Z,1.33
2023-03-28T19:38:36.697Z,1.30
2023-03-28T19:41:15.993Z,1.28
2023-03-28T19:43:45.553Z,1.25
2023-03-28T19:46:17.781Z,1.20
2023-03-28T19:48:47.153Z,1.18
2023-03-28T19:51:16.370Z,1.09
2023-03-28T19:53:45.373Z,0.97
2023-03-28T19:56:14.620Z,0.91
2023-03-28T19:58:43.848Z,0.90
2023-03-28T20:01:12.963Z,0.90
2023-03-28T20:03:42.337Z,0.90
2023-03-28T20:06:22.237Z,0.90
2023-03-28T20:08:51.422Z,0.89
2023-03-28T20:11:23.730Z,0.86
2023-03-28T20:13:52.924Z,0.84
2023-03-28T20:16:22.769Z,0.84
2023-03-28T20:18:54.411Z,0.83
2023-03-28T20:21:25.845Z,0.81
2023-03-28T20:23:55.258Z,0.78
2023-03-28T20:26:24.326Z,0.74
2023-03-28T20:28:54.845Z,0.73
2023-03-28T20:31:23.934Z,0.73
2023-03-28T20:33:56.386Z,0.71
2023-03-28T20:36:48.340Z,0.70
2023-03-28T20:39:17.442Z,0.69
2023-03-28T20:41:46.509Z,0.68
2023-03-28T20:44:15.568Z,0.64
2023-03-28T20:46:45.856Z,0.61
2023-03-28T20:49:15.064Z,0.60
2023-03-28T20:51:44.148Z,0.60
2023-03-28T20:54:13.273Z,0.61
2023-03-28T20:56:42.469Z,0.57
2023-03-28T20:59:11.564Z,0.53
2023-03-28T21:01:40.642Z,0.50
2023-03-28T21:04:09.744Z,0.50
2023-03-28T21:06:38.867Z,0.49
2023-03-28T21:09:08.718Z,0.46
2023-03-28T21:11:38.459Z,0.44
2023-03-28T21:14:08.673Z,0.40
2023-03-28T21:16:37.940Z,0.35
2023-03-28T21:19:07.111Z,0.31
2023-03-28T21:21:36.183Z,0.31
2023-03-28T21:24:05.638Z,0.29
2023-03-28T21:26:34.764Z,0.28
2023-03-28T21:29:03.928Z,0.27
2023-03-28T21:31:33.129Z,0.24
2023-03-28T21:34:02.229Z,0.19
2023-03-28T21:36:31.409Z,0.14
2023-03-28T21:39:00.502Z,0.11
2023-03-28T21:41:29.514Z,0.12
2023-03-28T21:43:58.627Z,0.10
2023-03-28T21:46:27.770Z,0.10
2023-03-28T21:48:56.935Z,0.07
2023-03-28T21:51:26.100Z,0.04
2023-03-28T21:53:55.579Z,0.02
2023-03-28T21:56:24.624Z,-0.01
2023-03-28T21:58:53.719Z,-0.02
2023-03-28T22:01:23.105Z,-0.03
2023-03-28T22:03:52.372Z,-0.04
2023-03-28T22:06:21.568Z,-0.04
2023-03-28T22:08:50.667Z,-0.04
2023-03-28T22:11:21.024Z,-0.06
2023-03-28T22:13:50.260Z,-0.09
2023-03-28T22:16:19.364Z,-0.11
2023-03-28T22:18:48.480Z,-0.13
2023-03-28T22:21:17.664Z,-0.14
2023-03-28T22:23:47.190Z,-0.14
2023-03-28T22:26:16.599Z,-0.13
2023-03-28T22:29:08.722Z,-0.11
2023-03-28T22:31:35.362Z,-0.11
2023-03-28T22:34:04.574Z,-0.12
2023-03-28T22:36:33.638Z,-0.14
2023-03-28T22:39:02.822Z,-0.14
2023-03-28T22:41:32.068Z,-0.15
2023-03-28T22:44:01.383Z,-0.14
2023-03-28T22:46:30.519Z,-0.18
2023-03-28T22:48:59.951Z,-0.21
2023-03-28T22:51:28.975Z,-0.25
2023-03-28T22:53:58.068Z,-0.29
2023-03-28T22:56:27.248Z,-0.34
2023-03-28T22:58:56.338Z,-0.37
2023-03-28T23:01:25.900Z,-0.36
2023-03-28T23:03:55.260Z,-0.36
2023-03-28T23:06:24.309Z,-0.36
2023-03-28T23:08:53.744Z,-0.37
2023-03-28T23:11:23.427Z,-0.37
2023-03-28T23:13:52.558Z,-0.38
2023-03-28T23:16:21.608Z,-0.38
2023-03-28T23:18:50.791Z,-0.36
2023-03-28T23:21:19.871Z,-0.35
2023-03-28T23:23:48.902Z,-0.34
2023-03-28T23:26:18.003Z,-0.33
2023-03-28T23:28:47.060Z,-0.37
2023-03-28T23:31:16.195Z,-0.41
2023-03-28T23:33:45.780Z,-0.43
2023-03-28T23:36:15.354Z,-0.42
2023-03-28T23:38:44.441Z,-0.39
2023-03-28T23:41:13.759Z,-0.36
2023-03-28T23:43:42.975Z,-0.33
2023-03-28T23:46:12.102Z,-0.32
2023-03-28T23:48:41.232Z,-0.31
2023-03-28T23:51:10.320Z,-0.30
2023-03-28T23:53:39.369Z,-0.27
2023-03-28T23:56:09.042Z,-0.27
2023-03-28T23:58:38.198Z,-0.21
